sensor_id;sensor_type;location;lat;lon;timestamp;P1;durP1;ratioP1;P2;durP2;ratioP2
66546;SDS011;53400;50.364;14.874;2023-12-20T00:01:57;8.90;;;3.55;;
66546;SDS011;53400;50.364;14.874;2023-12-20T00:04:24;7.28;;;3.40;;
66546;SDS011;53400;50.364;14.874;2023-12-20T00:06:50;7.13;;;2.83;;
66546;SDS011;53400;50.364;14.874;2023-12-20T00:09:16;6.78;;;3.22;;
66546;SDS011;53400;50.364;14.874;2023-12-20T00:11:43;3.90;;;2.13;;
66546;SDS011;53400;50.364;14.874;2023-12-20T00:14:08;6.63;;;3.25;;
66546;SDS011;53400;50.364;14.874;2023-12-20T00:16:35;6.90;;;3.47;;
66546;SDS011;53400;50.364;14.874;2023-12-20T00:19:01;6.35;;;3.28;;
66546;SDS011;53400;50.364;14.874;2023-12-20T00:21:29;6.78;;;2.72;;
66546;SDS011;53400;50.364;14.874;2023-12-20T00:23:55;6.68;;;3.15;;
66546;SDS011;53400;50.364;14.874;2023-12-20T00:26:21;7.10;;;3.22;;
66546;SDS011;53400;50.364;14.874;2023-12-20T00:28:47;6.45;;;3.00;;
66546;SDS011;53400;50.364;14.874;2023-12-20T00:31:13;8.00;;;3.47;;
66546;SDS011;53400;50.364;14.874;2023-12-20T00:33:39;7.40;;;3.83;;
66546;SDS011;53400;50.364;14.874;2023-12-20T00:36:09;4.97;;;2.97;;
66546;SDS011;53400;50.364;14.874;2023-12-20T00:38:36;8.40;;;2.40;;
66546;SDS011;53400;50.364;14.874;2023-12-20T00:41:05;7.97;;;4.00;;
66546;SDS011;53400;50.364;14.874;2023-12-20T00:43:33;6.63;;;3.00;;
66546;SDS011;53400;50.364;14.874;2023-12-20T00:45:59;5.68;;;3.05;;
66546;SDS011;53400;50.364;14.874;2023-12-20T00:48:25;7.32;;;3.53;;
66546;SDS011;53400;50.364;14.874;2023-12-20T00:50:52;6.70;;;3.40;;
66546;SDS011;53400;50.364;14.874;2023-12-20T00:53:18;5.57;;;3.13;;
66546;SDS011;53400;50.364;14.874;2023-12-20T00:55:46;8.93;;;4.07;;
66546;SDS011;53400;50.364;14.874;2023-12-20T00:58:12;7.85;;;4.38;;
66546;SDS011;53400;50.364;14.874;2023-12-20T01:00:41;8.32;;;4.05;;
66546;SDS011;53400;50.364;14.874;2023-12-20T01:03:08;9.40;;;4.38;;
66546;SDS011;53400;50.364;14.874;2023-12-20T01:05:34;8.32;;;4.05;;
66546;SDS011;53400;50.364;14.874;2023-12-20T01:08:00;9.43;;;4.68;;
66546;SDS011;53400;50.364;14.874;2023-12-20T01:10:28;7.63;;;3.13;;
66546;SDS011;53400;50.364;14.874;2023-12-20T01:12:59;9.35;;;4.43;;
66546;SDS011;53400;50.364;14.874;2023-12-20T01:15:25;7.20;;;3.53;;
66546;SDS011;53400;50.364;14.874;2023-12-20T01:17:51;9.95;;;4.65;;
66546;SDS011;53400;50.364;14.874;2023-12-20T01:20:17;9.10;;;4.28;;
66546;SDS011;53400;50.364;14.874;2023-12-20T01:22:45;9.20;;;4.93;;
66546;SDS011;53400;50.364;14.874;2023-12-20T01:25:11;9.45;;;5.22;;
66546;SDS011;53400;50.364;14.874;2023-12-20T01:27:37;10.15;;;4.47;;
66546;SDS011;53400;50.364;14.874;2023-12-20T01:30:06;10.35;;;5.28;;
66546;SDS011;53400;50.364;14.874;2023-12-20T01:32:32;9.10;;;5.32;;
66546;SDS011;53400;50.364;14.874;2023-12-20T01:34:59;9.48;;;4.60;;
66546;SDS011;53400;50.364;14.874;2023-12-20T01:37:24;9.68;;;5.65;;
66546;SDS011;53400;50.364;14.874;2023-12-20T01:39:52;8.65;;;5.05;;
66546;SDS011;53400;50.364;14.874;2023-12-20T01:42:18;10.38;;;5.30;;
66546;SDS011;53400;50.364;14.874;2023-12-20T01:44:44;10.02;;;5.60;;
66546;SDS011;53400;50.364;14.874;2023-12-20T01:47:11;9.35;;;4.93;;
66546;SDS011;53400;50.364;14.874;2023-12-20T01:49:38;6.88;;;3.35;;
66546;SDS011;53400;50.364;14.874;2023-12-20T01:52:04;9.43;;;4.70;;
66546;SDS011;53400;50.364;14.874;2023-12-20T01:54:32;9.35;;;4.65;;
66546;SDS011;53400;50.364;14.874;2023-12-20T01:56:59;10.38;;;5.28;;
66546;SDS011;53400;50.364;14.874;2023-12-20T01:59:25;9.50;;;5.30;;
66546;SDS011;53400;50.364;14.874;2023-12-20T02:01:51;9.15;;;4.78;;
66546;SDS011;53400;50.364;14.874;2023-12-20T02:04:19;10.07;;;5.50;;
66546;SDS011;53400;50.364;14.874;2023-12-20T02:06:45;9.48;;;4.50;;
66546;SDS011;53400;50.364;14.874;2023-12-20T02:09:12;9.50;;;4.40;;
66546;SDS011;53400;50.364;14.874;2023-12-20T02:11:38;10.70;;;5.50;;
66546;SDS011;53400;50.364;14.874;2023-12-20T02:14:05;9.85;;;5.07;;
66546;SDS011;53400;50.364;14.874;2023-12-20T02:16:31;9.93;;;5.13;;
66546;SDS011;53400;50.364;14.874;2023-12-20T02:18:57;9.15;;;4.90;;
66546;SDS011;53400;50.364;14.874;2023-12-20T02:21:26;10.52;;;4.97;;
66546;SDS011;53400;50.364;14.874;2023-12-20T02:23:58;10.85;;;4.82;;
66546;SDS011;53400;50.364;14.874;2023-12-20T02:26:28;9.18;;;5.55;;
66546;SDS011;53400;50.364;14.874;2023-12-20T02:28:57;11.35;;;5.97;;
66546;SDS011;53400;50.364;14.874;2023-12-20T02:31:24;11.55;;;6.13;;
66546;SDS011;53400;50.364;14.874;2023-12-20T02:33:51;9.20;;;5.22;;
66546;SDS011;53400;50.364;14.874;2023-12-20T02:36:17;9.27;;;4.43;;
66546;SDS011;53400;50.364;14.874;2023-12-20T02:38:44;10.73;;;5.70;;
66546;SDS011;53400;50.364;14.874;2023-12-20T02:41:10;9.95;;;5.05;;
66546;SDS011;53400;50.364;14.874;2023-12-20T02:43:36;12.35;;;6.72;;
66546;SDS011;53400;50.364;14.874;2023-12-20T02:46:02;12.77;;;6.50;;
66546;SDS011;53400;50.364;14.874;2023-12-20T02:48:29;14.98;;;5.95;;
66546;SDS011;53400;50.364;14.874;2023-12-20T02:50:55;10.15;;;5.40;;
66546;SDS011;53400;50.364;14.874;2023-12-20T02:53:21;11.55;;;6.45;;
66546;SDS011;53400;50.364;14.874;2023-12-20T02:55:48;10.57;;;6.05;;
66546;SDS011;53400;50.364;14.874;2023-12-20T02:58:14;12.20;;;6.50;;
66546;SDS011;53400;50.364;14.874;2023-12-20T03:00:40;11.38;;;6.40;;
66546;SDS011;53400;50.364;14.874;2023-12-20T03:03:07;10.93;;;6.72;;
66546;SDS011;53400;50.364;14.874;2023-12-20T03:05:33;12.73;;;6.30;;
66546;SDS011;53400;50.364;14.874;2023-12-20T03:07:59;11.35;;;6.22;;
66546;SDS011;53400;50.364;14.874;2023-12-20T03:10:25;12.00;;;5.85;;
66546;SDS011;53400;50.364;14.874;2023-12-20T03:12:53;12.65;;;6.03;;
66546;SDS011;53400;50.364;14.874;2023-12-20T03:15:24;10.63;;;6.57;;
66546;SDS011;53400;50.364;14.874;2023-12-20T03:17:50;12.38;;;5.53;;
66546;SDS011;53400;50.364;14.874;2023-12-20T03:20:16;11.38;;;6.15;;
66546;SDS011;53400;50.364;14.874;2023-12-20T03:22:42;10.55;;;6.18;;
66546;SDS011;53400;50.364;14.874;2023-12-20T03:25:08;13.30;;;6.60;;
66546;SDS011;53400;50.364;14.874;2023-12-20T03:27:36;11.27;;;5.90;;
66546;SDS011;53400;50.364;14.874;2023-12-20T03:30:04;12.23;;;6.70;;
66546;SDS011;53400;50.364;14.874;2023-12-20T03:32:32;12.70;;;6.80;;
66546;SDS011;53400;50.364;14.874;2023-12-20T03:34:57;12.00;;;6.13;;
66546;SDS011;53400;50.364;14.874;2023-12-20T03:37:24;13.43;;;6.88;;
66546;SDS011;53400;50.364;14.874;2023-12-20T03:39:50;11.57;;;6.55;;
66546;SDS011;53400;50.364;14.874;2023-12-20T03:42:16;11.68;;;6.63;;
66546;SDS011;53400;50.364;14.874;2023-12-20T03:44:41;12.85;;;5.93;;
66546;SDS011;53400;50.364;14.874;2023-12-20T03:47:09;11.80;;;6.70;;
66546;SDS011;53400;50.364;14.874;2023-12-20T03:49:39;12.52;;;7.15;;
66546;SDS011;53400;50.364;14.874;2023-12-20T03:52:06;13.35;;;6.93;;
66546;SDS011;53400;50.364;14.874;2023-12-20T03:54:31;11.98;;;6.50;;
66546;SDS011;53400;50.364;14.874;2023-12-20T03:56:58;12.88;;;6.85;;
66546;SDS011;53400;50.364;14.874;2023-12-20T03:59:23;14.38;;;6.60;;
66546;SDS011;53400;50.364;14.874;2023-12-20T04:01:50;13.02;;;6.22;;
66546;SDS011;53400;50.364;14.874;2023-12-20T04:04:17;12.25;;;5.97;;
66546;SDS011;53400;50.364;14.874;2023-12-20T04:06:43;11.82;;;6.32;;
66546;SDS011;53400;50.364;14.874;2023-12-20T04:09:09;11.13;;;5.82;;
66546;SDS011;53400;50.364;14.874;2023-12-20T04:11:36;8.45;;;4.28;;
66546;SDS011;53400;50.364;14.874;2023-12-20T04:14:02;12.60;;;6.40;;
66546;SDS011;53400;50.364;14.874;2023-12-20T04:16:28;11.52;;;5.60;;
66546;SDS011;53400;50.364;14.874;2023-12-20T04:18:54;11.65;;;6.40;;
66546;SDS011;53400;50.364;14.874;2023-12-20T04:21:21;14.13;;;7.80;;
66546;SDS011;53400;50.364;14.874;2023-12-20T04:23:47;10.45;;;5.80;;
66546;SDS011;53400;50.364;14.874;2023-12-20T04:26:13;10.60;;;4.95;;
66546;SDS011;53400;50.364;14.874;2023-12-20T04:28:39;11.27;;;5.80;;
66546;SDS011;53400;50.364;14.874;2023-12-20T04:31:05;10.45;;;5.20;;
66546;SDS011;53400;50.364;14.874;2023-12-20T04:33:32;12.57;;;6.22;;
66546;SDS011;53400;50.364;14.874;2023-12-20T04:35:58;13.10;;;6.50;;
66546;SDS011;53400;50.364;14.874;2023-12-20T04:38:26;11.00;;;5.25;;
66546;SDS011;53400;50.364;14.874;2023-12-20T04:40:52;9.40;;;5.05;;
66546;SDS011;53400;50.364;14.874;2023-12-20T04:43:18;11.23;;;5.72;;
66546;SDS011;53400;50.364;14.874;2023-12-20T04:45:44;10.93;;;5.28;;
66546;SDS011;53400;50.364;14.874;2023-12-20T04:48:10;12.13;;;5.95;;
66546;SDS011;53400;50.364;14.874;2023-12-20T04:50:36;10.57;;;5.22;;
66546;SDS011;53400;50.364;14.874;2023-12-20T04:53:02;11.15;;;6.20;;
66546;SDS011;53400;50.364;14.874;2023-12-20T04:55:30;11.15;;;5.65;;
66546;SDS011;53400;50.364;14.874;2023-12-20T04:57:56;11.75;;;6.10;;
66546;SDS011;53400;50.364;14.874;2023-12-20T05:00:22;13.52;;;7.25;;
66546;SDS011;53400;50.364;14.874;2023-12-20T05:02:48;11.35;;;5.97;;
66546;SDS011;53400;50.364;14.874;2023-12-20T05:05:15;12.13;;;5.97;;
66546;SDS011;53400;50.364;14.874;2023-12-20T05:07:43;12.63;;;5.95;;
66546;SDS011;53400;50.364;14.874;2023-12-20T05:10:09;11.68;;;6.30;;
66546;SDS011;53400;50.364;14.874;2023-12-20T05:12:37;11.98;;;5.65;;
66546;SDS011;53400;50.364;14.874;2023-12-20T05:15:05;13.20;;;6.50;;
66546;SDS011;53400;50.364;14.874;2023-12-20T05:17:33;11.25;;;5.63;;
66546;SDS011;53400;50.364;14.874;2023-12-20T05:19:59;11.25;;;5.15;;
66546;SDS011;53400;50.364;14.874;2023-12-20T05:22:25;11.15;;;5.10;;
66546;SDS011;53400;50.364;14.874;2023-12-20T05:24:53;13.10;;;6.50;;
66546;SDS011;53400;50.364;14.874;2023-12-20T05:27:19;13.02;;;5.60;;
66546;SDS011;53400;50.364;14.874;2023-12-20T05:29:48;10.07;;;5.13;;
66546;SDS011;53400;50.364;14.874;2023-12-20T05:32:14;11.98;;;6.05;;
66546;SDS011;53400;50.364;14.874;2023-12-20T05:34:40;11.30;;;5.15;;
66546;SDS011;53400;50.364;14.874;2023-12-20T05:37:06;10.10;;;5.00;;
66546;SDS011;53400;50.364;14.874;2023-12-20T05:39:33;8.75;;;4.65;;
66546;SDS011;53400;50.364;14.874;2023-12-20T05:41:59;9.50;;;4.25;;
66546;SDS011;53400;50.364;14.874;2023-12-20T05:44:25;9.82;;;5.10;;
66546;SDS011;53400;50.364;14.874;2023-12-20T05:46:55;8.68;;;4.03;;
66546;SDS011;53400;50.364;14.874;2023-12-20T05:49:22;11.00;;;4.22;;
66546;SDS011;53400;50.364;14.874;2023-12-20T05:51:48;8.75;;;4.13;;
66546;SDS011;53400;50.364;14.874;2023-12-20T05:54:14;9.15;;;4.43;;
66546;SDS011;53400;50.364;14.874;2023-12-20T05:56:40;11.13;;;4.95;;
66546;SDS011;53400;50.364;14.874;2023-12-20T05:59:06;8.43;;;4.03;;
66546;SDS011;53400;50.364;14.874;2023-12-20T06:01:33;7.93;;;3.83;;
66546;SDS011;53400;50.364;14.874;2023-12-20T06:04:01;7.05;;;3.65;;
66546;SDS011;53400;50.364;14.874;2023-12-20T06:06:28;7.95;;;3.65;;
66546;SDS011;53400;50.364;14.874;2023-12-20T06:08:54;7.78;;;3.22;;
66546;SDS011;53400;50.364;14.874;2023-12-20T06:11:20;6.85;;;2.88;;
66546;SDS011;53400;50.364;14.874;2023-12-20T06:13:47;6.68;;;2.75;;
66546;SDS011;53400;50.364;14.874;2023-12-20T06:16:14;6.05;;;2.70;;
66546;SDS011;53400;50.364;14.874;2023-12-20T06:18:41;4.13;;;1.98;;
66546;SDS011;53400;50.364;14.874;2023-12-20T06:21:08;5.32;;;2.42;;
66546;SDS011;53400;50.364;14.874;2023-12-20T06:23:41;4.80;;;2.05;;
66546;SDS011;53400;50.364;14.874;2023-12-20T06:26:07;6.38;;;2.42;;
66546;SDS011;53400;50.364;14.874;2023-12-20T06:28:34;5.38;;;2.13;;
66546;SDS011;53400;50.364;14.874;2023-12-20T06:31:00;5.22;;;2.25;;
66546;SDS011;53400;50.364;14.874;2023-12-20T06:33:26;4.20;;;1.98;;
66546;SDS011;53400;50.364;14.874;2023-12-20T06:35:52;4.30;;;1.80;;
66546;SDS011;53400;50.364;14.874;2023-12-20T06:38:20;3.83;;;1.30;;
66546;SDS011;53400;50.364;14.874;2023-12-20T06:40:46;4.38;;;1.40;;
66546;SDS011;53400;50.364;14.874;2023-12-20T06:43:13;3.50;;;1.30;;
66546;SDS011;53400;50.364;14.874;2023-12-20T06:45:39;2.63;;;1.00;;
66546;SDS011;53400;50.364;14.874;2023-12-20T06:48:06;2.13;;;0.88;;
66546;SDS011;53400;50.364;14.874;2023-12-20T06:50:33;2.13;;;0.85;;
66546;SDS011;53400;50.364;14.874;2023-12-20T06:52:59;3.13;;;0.90;;
66546;SDS011;53400;50.364;14.874;2023-12-20T06:55:33;1.75;;;0.77;;
66546;SDS011;53400;50.364;14.874;2023-12-20T06:58:01;2.30;;;0.90;;
66546;SDS011;53400;50.364;14.874;2023-12-20T07:00:27;2.05;;;0.90;;
66546;SDS011;53400;50.364;14.874;2023-12-20T07:02:54;2.25;;;0.80;;
66546;SDS011;53400;50.364;14.874;2023-12-20T07:05:20;2.22;;;0.68;;
66546;SDS011;53400;50.364;14.874;2023-12-20T07:07:47;1.48;;;0.77;;
66546;SDS011;53400;50.364;14.874;2023-12-20T07:10:13;2.55;;;0.70;;
66546;SDS011;53400;50.364;14.874;2023-12-20T07:12:41;2.03;;;0.70;;
66546;SDS011;53400;50.364;14.874;2023-12-20T07:15:07;2.70;;;1.10;;
66546;SDS011;53400;50.364;14.874;2023-12-20T07:17:35;3.42;;;1.02;;
66546;SDS011;53400;50.364;14.874;2023-12-20T07:20:00;2.15;;;0.82;;
66546;SDS011;53400;50.364;14.874;2023-12-20T07:22:31;2.17;;;0.80;;
66546;SDS011;53400;50.364;14.874;2023-12-20T07:24:57;4.82;;;1.30;;
66546;SDS011;53400;50.364;14.874;2023-12-20T07:27:25;2.65;;;1.25;;
66546;SDS011;53400;50.364;14.874;2023-12-20T07:29:53;3.50;;;1.35;;
66546;SDS011;53400;50.364;14.874;2023-12-20T07:32:19;3.15;;;0.95;;
66546;SDS011;53400;50.364;14.874;2023-12-20T07:34:47;2.97;;;1.20;;
66546;SDS011;53400;50.364;14.874;2023-12-20T07:37:13;2.85;;;1.20;;
66546;SDS011;53400;50.364;14.874;2023-12-20T07:39:39;6.22;;;1.52;;
66546;SDS011;53400;50.364;14.874;2023-12-20T07:42:06;3.58;;;1.40;;
66546;SDS011;53400;50.364;14.874;2023-12-20T07:44:32;3.40;;;1.40;;
66546;SDS011;53400;50.364;14.874;2023-12-20T07:47:00;3.30;;;1.27;;
66546;SDS011;53400;50.364;14.874;2023-12-20T07:49:26;3.78;;;1.42;;
66546;SDS011;53400;50.364;14.874;2023-12-20T07:51:53;3.35;;;1.27;;
66546;SDS011;53400;50.364;14.874;2023-12-20T07:54:19;4.03;;;1.38;;
66546;SDS011;53400;50.364;14.874;2023-12-20T07:56:45;4.25;;;1.50;;
66546;SDS011;53400;50.364;14.874;2023-12-20T07:59:12;4.75;;;1.33;;
66546;SDS011;53400;50.364;14.874;2023-12-20T08:01:49;4.20;;;1.55;;
66546;SDS011;53400;50.364;14.874;2023-12-20T08:04:19;3.88;;;1.60;;
66546;SDS011;53400;50.364;14.874;2023-12-20T08:06:45;3.75;;;1.45;;
66546;SDS011;53400;50.364;14.874;2023-12-20T08:09:16;3.55;;;1.33;;
66546;SDS011;53400;50.364;14.874;2023-12-20T08:11:44;3.53;;;1.27;;
66546;SDS011;53400;50.364;14.874;2023-12-20T08:14:10;4.03;;;1.40;;
66546;SDS011;53400;50.364;14.874;2023-12-20T08:16:38;3.42;;;1.60;;
66546;SDS011;53400;50.364;14.874;2023-12-20T08:19:06;4.15;;;1.77;;
66546;SDS011;53400;50.364;14.874;2023-12-20T08:21:35;2.42;;;1.10;;
66546;SDS011;53400;50.364;14.874;2023-12-20T08:24:03;3.35;;;1.35;;
66546;SDS011;53400;50.364;14.874;2023-12-20T08:26:30;2.88;;;1.05;;
66546;SDS011;53400;50.364;14.874;2023-12-20T08:28:56;3.35;;;1.13;;
66546;SDS011;53400;50.364;14.874;2023-12-20T08:31:23;4.10;;;1.42;;
66546;SDS011;53400;50.364;14.874;2023-12-20T08:33:49;2.97;;;1.10;;
66546;SDS011;53400;50.364;14.874;2023-12-20T08:36:15;2.25;;;1.00;;
66546;SDS011;53400;50.364;14.874;2023-12-20T08:38:45;2.55;;;1.23;;
66546;SDS011;53400;50.364;14.874;2023-12-20T08:41:13;3.03;;;1.00;;
66546;SDS011;53400;50.364;14.874;2023-12-20T08:43:39;1.95;;;0.95;;
66546;SDS011;53400;50.364;14.874;2023-12-20T08:46:12;2.60;;;1.00;;
66546;SDS011;53400;50.364;14.874;2023-12-20T08:48:39;3.45;;;1.05;;
66546;SDS011;53400;50.364;14.874;2023-12-20T08:51:05;2.47;;;1.17;;
66546;SDS011;53400;50.364;14.874;2023-12-20T08:53:35;2.78;;;1.10;;
66546;SDS011;53400;50.364;14.874;2023-12-20T08:56:03;1.80;;;0.90;;
66546;SDS011;53400;50.364;14.874;2023-12-20T08:58:30;3.80;;;1.42;;
66546;SDS011;53400;50.364;14.874;2023-12-20T09:00:56;3.63;;;1.08;;
66546;SDS011;53400;50.364;14.874;2023-12-20T09:03:22;4.03;;;1.30;;
66546;SDS011;53400;50.364;14.874;2023-12-20T09:05:49;3.17;;;1.25;;
66546;SDS011;53400;50.364;14.874;2023-12-20T09:08:14;3.25;;;1.38;;
66546;SDS011;53400;50.364;14.874;2023-12-20T09:10:40;3.28;;;1.27;;
66546;SDS011;53400;50.364;14.874;2023-12-20T09:13:10;3.65;;;1.48;;
66546;SDS011;53400;50.364;14.874;2023-12-20T09:15:37;1.98;;;0.90;;
66546;SDS011;53400;50.364;14.874;2023-12-20T09:18:03;5.82;;;1.30;;
66546;SDS011;53400;50.364;14.874;2023-12-20T09:20:29;2.85;;;1.30;;
66546;SDS011;53400;50.364;14.874;2023-12-20T09:22:55;2.03;;;0.82;;
66546;SDS011;53400;50.364;14.874;2023-12-20T09:25:22;3.00;;;1.15;;
66546;SDS011;53400;50.364;14.874;2023-12-20T09:27:48;3.80;;;1.30;;
66546;SDS011;53400;50.364;14.874;2023-12-20T09:30:16;4.70;;;1.27;;
66546;SDS011;53400;50.364;14.874;2023-12-20T09:32:42;5.50;;;1.90;;
66546;SDS011;53400;50.364;14.874;2023-12-20T09:35:09;3.85;;;1.25;;
66546;SDS011;53400;50.364;14.874;2023-12-20T09:37:35;3.03;;;1.10;;
66546;SDS011;53400;50.364;14.874;2023-12-20T09:40:02;3.83;;;1.48;;
66546;SDS011;53400;50.364;14.874;2023-12-20T09:42:31;4.65;;;1.50;;
66546;SDS011;53400;50.364;14.874;2023-12-20T09:45:04;3.90;;;1.50;;
66546;SDS011;53400;50.364;14.874;2023-12-20T09:47:35;5.65;;;1.60;;
66546;SDS011;53400;50.364;14.874;2023-12-20T09:50:01;4.25;;;1.75;;
66546;SDS011;53400;50.364;14.874;2023-12-20T09:52:27;3.60;;;1.30;;
66546;SDS011;53400;50.364;14.874;2023-12-20T09:54:55;6.55;;;1.50;;
66546;SDS011;53400;50.364;14.874;2023-12-20T09:57:22;2.47;;;1.10;;
66546;SDS011;53400;50.364;14.874;2023-12-20T09:59:48;3.70;;;1.50;;
66546;SDS011;53400;50.364;14.874;2023-12-20T10:02:15;2.75;;;1.60;;
66546;SDS011;53400;50.364;14.874;2023-12-20T10:04:47;3.92;;;1.52;;
66546;SDS011;53400;50.364;14.874;2023-12-20T10:07:13;5.57;;;1.60;;
66546;SDS011;53400;50.364;14.874;2023-12-20T10:09:40;4.07;;;1.60;;
66546;SDS011;53400;50.364;14.874;2023-12-20T10:12:07;4.30;;;1.70;;
66546;SDS011;53400;50.364;14.874;2023-12-20T10:14:34;2.25;;;0.95;;
66546;SDS011;53400;50.364;14.874;2023-12-20T10:17:01;3.72;;;1.38;;
66546;SDS011;53400;50.364;14.874;2023-12-20T10:19:28;3.10;;;1.25;;
66546;SDS011;53400;50.364;14.874;2023-12-20T10:22:14;3.78;;;1.30;;
66546;SDS011;53400;50.364;14.874;2023-12-20T10:24:46;2.95;;;1.05;;
66546;SDS011;53400;50.364;14.874;2023-12-20T10:27:23;2.90;;;1.10;;
66546;SDS011;53400;50.364;14.874;2023-12-20T10:29:58;2.85;;;1.10;;
66546;SDS011;53400;50.364;14.874;2023-12-20T10:32:25;3.72;;;1.40;;
66546;SDS011;53400;50.364;14.874;2023-12-20T10:34:52;3.28;;;1.45;;
66546;SDS011;53400;50.364;14.874;2023-12-20T10:37:21;4.05;;;1.10;;
66546;SDS011;53400;50.364;14.874;2023-12-20T10:39:50;3.45;;;1.15;;
66546;SDS011;53400;50.364;14.874;2023-12-20T10:42:26;2.72;;;1.08;;
66546;SDS011;53400;50.364;14.874;2023-12-20T10:45:16;3.78;;;1.38;;
66546;SDS011;53400;50.364;14.874;2023-12-20T10:47:45;1.88;;;1.08;;
66546;SDS011;53400;50.364;14.874;2023-12-20T10:50:12;2.88;;;1.10;;
66546;SDS011;53400;50.364;14.874;2023-12-20T10:52:39;2.72;;;0.85;;
66546;SDS011;53400;50.364;14.874;2023-12-20T10:55:07;1.52;;;0.75;;
66546;SDS011;53400;50.364;14.874;2023-12-20T10:57:34;2.75;;;1.13;;
66546;SDS011;53400;50.364;14.874;2023-12-20T11:00:02;3.10;;;1.05;;
66546;SDS011;53400;50.364;14.874;2023-12-20T11:02:31;3.45;;;1.27;;
66546;SDS011;53400;50.364;14.874;2023-12-20T11:04:59;4.82;;;1.52;;
66546;SDS011;53400;50.364;14.874;2023-12-20T11:07:37;3.58;;;1.20;;
66546;SDS011;53400;50.364;14.874;2023-12-20T11:10:10;2.40;;;1.02;;
66546;SDS011;53400;50.364;14.874;2023-12-20T11:12:47;2.83;;;1.17;;
66546;SDS011;53400;50.364;14.874;2023-12-20T11:15:17;2.65;;;1.05;;
66546;SDS011;53400;50.364;14.874;2023-12-20T11:17:45;3.40;;;1.00;;
66546;SDS011;53400;50.364;14.874;2023-12-20T11:20:12;3.75;;;1.20;;
66546;SDS011;53400;50.364;14.874;2023-12-20T11:22:54;3.88;;;1.30;;
66546;SDS011;53400;50.364;14.874;2023-12-20T11:25:21;3.35;;;1.13;;
66546;SDS011;53400;50.364;14.874;2023-12-20T11:28:07;1.95;;;0.95;;
66546;SDS011;53400;50.364;14.874;2023-12-20T11:33:29;3.63;;;1.23;;
66546;SDS011;53400;50.364;14.874;2023-12-20T11:35:59;2.55;;;0.93;;
66546;SDS011;53400;50.364;14.874;2023-12-20T11:38:34;2.90;;;1.10;;
66546;SDS011;53400;50.364;14.874;2023-12-20T11:41:46;3.10;;;1.10;;
66546;SDS011;53400;50.364;14.874;2023-12-20T11:44:14;2.75;;;1.00;;
66546;SDS011;53400;50.364;14.874;2023-12-20T11:46:44;3.10;;;1.30;;
66546;SDS011;53400;50.364;14.874;2023-12-20T11:49:10;2.83;;;1.10;;
66546;SDS011;53400;50.364;14.874;2023-12-20T11:51:40;3.85;;;1.20;;
66546;SDS011;53400;50.364;14.874;2023-12-20T11:54:08;5.43;;;1.30;;
66546;SDS011;53400;50.364;14.874;2023-12-20T11:56:35;1.73;;;0.63;;
66546;SDS011;53400;50.364;14.874;2023-12-20T11:59:01;1.70;;;0.90;;
66546;SDS011;53400;50.364;14.874;2023-12-20T12:01:27;2.58;;;1.00;;
66546;SDS011;53400;50.364;14.874;2023-12-20T12:04:02;3.40;;;1.33;;
66546;SDS011;53400;50.364;14.874;2023-12-20T12:06:28;3.22;;;1.33;;
66546;SDS011;53400;50.364;14.874;2023-12-20T12:08:54;2.97;;;1.08;;
66546;SDS011;53400;50.364;14.874;2023-12-20T12:11:22;3.03;;;1.27;;
66546;SDS011;53400;50.364;14.874;2023-12-20T12:13:48;3.85;;;1.20;;
66546;SDS011;53400;50.364;14.874;2023-12-20T12:16:16;4.40;;;1.30;;
66546;SDS011;53400;50.364;14.874;2023-12-20T12:18:43;3.35;;;1.20;;
66546;SDS011;53400;50.364;14.874;2023-12-20T12:21:09;3.42;;;1.27;;
66546;SDS011;53400;50.364;14.874;2023-12-20T12:23:35;3.60;;;1.20;;
66546;SDS011;53400;50.364;14.874;2023-12-20T12:26:03;1.65;;;0.88;;
66546;SDS011;53400;50.364;14.874;2023-12-20T12:28:31;3.67;;;1.30;;
66546;SDS011;53400;50.364;14.874;2023-12-20T12:30:58;3.70;;;1.33;;
66546;SDS011;53400;50.364;14.874;2023-12-20T12:33:24;4.43;;;1.45;;
66546;SDS011;53400;50.364;14.874;2023-12-20T12:35:51;3.08;;;1.05;;
66546;SDS011;53400;50.364;14.874;2023-12-20T12:38:19;3.50;;;1.38;;
66546;SDS011;53400;50.364;14.874;2023-12-20T12:40:45;3.05;;;1.20;;
66546;SDS011;53400;50.364;14.874;2023-12-20T12:43:12;3.28;;;1.20;;
66546;SDS011;53400;50.364;14.874;2023-12-20T12:45:40;4.13;;;1.30;;
66546;SDS011;53400;50.364;14.874;2023-12-20T12:48:06;2.78;;;0.98;;
66546;SDS011;53400;50.364;14.874;2023-12-20T12:50:33;3.03;;;1.30;;
66546;SDS011;53400;50.364;14.874;2023-12-20T12:52:58;3.53;;;1.42;;
66546;SDS011;53400;50.364;14.874;2023-12-20T12:55:25;6.57;;;1.50;;
66546;SDS011;53400;50.364;14.874;2023-12-20T12:57:50;5.47;;;0.98;;
66546;SDS011;53400;50.364;14.874;2023-12-20T13:00:17;3.22;;;1.20;;
66546;SDS011;53400;50.364;14.874;2023-12-20T13:02:46;2.65;;;1.00;;
66546;SDS011;53400;50.364;14.874;2023-12-20T13:05:12;3.55;;;1.42;;
66546;SDS011;53400;50.364;14.874;2023-12-20T13:07:38;2.40;;;1.00;;
66546;SDS011;53400;50.364;14.874;2023-12-20T13:10:05;3.58;;;1.27;;
66546;SDS011;53400;50.364;14.874;2023-12-20T13:12:31;3.80;;;1.38;;
66546;SDS011;53400;50.364;14.874;2023-12-20T13:14:58;4.00;;;1.70;;
66546;SDS011;53400;50.364;14.874;2023-12-20T13:17:24;4.80;;;1.50;;
66546;SDS011;53400;50.364;14.874;2023-12-20T13:19:51;3.97;;;1.50;;
66546;SDS011;53400;50.364;14.874;2023-12-20T13:22:17;5.03;;;1.48;;
66546;SDS011;53400;50.364;14.874;2023-12-20T13:24:44;2.10;;;1.15;;
66546;SDS011;53400;50.364;14.874;2023-12-20T13:27:10;4.18;;;1.40;;
66546;SDS011;53400;50.364;14.874;2023-12-20T13:29:36;3.72;;;1.50;;
66546;SDS011;53400;50.364;14.874;2023-12-20T13:32:03;2.53;;;1.10;;
66546;SDS011;53400;50.364;14.874;2023-12-20T13:34:30;3.85;;;1.40;;
66546;SDS011;53400;50.364;14.874;2023-12-20T13:36:57;3.75;;;1.77;;
66546;SDS011;53400;50.364;14.874;2023-12-20T13:39:23;4.00;;;1.40;;
66546;SDS011;53400;50.364;14.874;2023-12-20T13:41:49;3.80;;;1.52;;
66546;SDS011;53400;50.364;14.874;2023-12-20T13:44:15;2.90;;;1.00;;
66546;SDS011;53400;50.364;14.874;2023-12-20T13:46:41;3.50;;;1.40;;
66546;SDS011;53400;50.364;14.874;2023-12-20T13:49:08;4.43;;;1.40;;
66546;SDS011;53400;50.364;14.874;2023-12-20T13:51:34;3.38;;;1.50;;
66546;SDS011;53400;50.364;14.874;2023-12-20T13:54:02;4.25;;;1.35;;
66546;SDS011;53400;50.364;14.874;2023-12-20T13:56:28;3.53;;;1.30;;
66546;SDS011;53400;50.364;14.874;2023-12-20T13:58:54;4.25;;;1.30;;
66546;SDS011;53400;50.364;14.874;2023-12-20T14:01:20;4.00;;;1.30;;
66546;SDS011;53400;50.364;14.874;2023-12-20T14:03:47;3.42;;;1.40;;
66546;SDS011;53400;50.364;14.874;2023-12-20T14:06:12;3.60;;;1.33;;
66546;SDS011;53400;50.364;14.874;2023-12-20T14:08:40;2.15;;;1.02;;
66546;SDS011;53400;50.364;14.874;2023-12-20T14:11:08;3.13;;;1.30;;
66546;SDS011;53400;50.364;14.874;2023-12-20T14:13:37;3.67;;;1.25;;
66546;SDS011;53400;50.364;14.874;2023-12-20T14:16:04;3.03;;;1.38;;
66546;SDS011;53400;50.364;14.874;2023-12-20T14:18:30;4.63;;;1.33;;
66546;SDS011;53400;50.364;14.874;2023-12-20T14:20:59;3.78;;;1.10;;
66546;SDS011;53400;50.364;14.874;2023-12-20T14:23:25;4.00;;;1.50;;
66546;SDS011;53400;50.364;14.874;2023-12-20T14:25:51;3.35;;;1.60;;
66546;SDS011;53400;50.364;14.874;2023-12-20T14:28:19;3.65;;;1.10;;
66546;SDS011;53400;50.364;14.874;2023-12-20T14:30:45;2.63;;;1.00;;
66546;SDS011;53400;50.364;14.874;2023-12-20T14:33:12;3.35;;;1.15;;
66546;SDS011;53400;50.364;14.874;2023-12-20T14:35:40;4.80;;;1.23;;